»·PEaware :: N5328W KBUR-KLAS

N5328W :: KBUR-KLAS

FLIGHT INFORMATION

Flight Status: Arrived
Operator: Privately registered:
United States
More flights under this callsign
Pilot: Nick S. (31988)
Aircraft: BEECH AIRCRAFT BONANZA
(BE36)
More flights by this aircraft type
Origin: KBUR Bob Hope-Burbank
United States
Destination: KLAS McCarran Intl
United States
More flights between these airports :: More routes between these airports
Route: VNY3 DAG CRESO4
File this flight plan on PilotEdge
Remarks:
Altitude:
(Current/Filed)
10,000ft
Speed:
(Current/Filed)
160kts
Departed: 15-Nov-20 04:42 PM
Arrived: 15-Nov-20 06:40 PM
Distance/Time
Traveled:
193nm/1:58
Distance/Time
To Go:
Arrived

Flight Plot

Page will automatically refresh every two minutes.

Flight plan parsing failed; only flown route is shown


Map Options




Map Legend


Flown Route
Filed Route
Departure Airport
Arrival Airport
Navaid (VOR, NDB)
Fix

Horizontal Profiles

Position Reports

Time Latitude Longitude Heading Altitude Ground
Speed
15-Nov-20 16:12 34.199448 -118.359436 177 717ft 0kts
15-Nov-20 16:13 34.199448 -118.359436 177 717ft 0kts
15-Nov-20 16:14 34.199448 -118.359436 177 717ft 0kts
15-Nov-20 16:15 34.199448 -118.359436 177 717ft 0kts
15-Nov-20 16:16 34.199448 -118.359436 177 717ft 0kts
15-Nov-20 16:17 34.199448 -118.359436 177 717ft 0kts
15-Nov-20 16:18 34.199448 -118.359436 177 717ft 0kts
15-Nov-20 16:19 34.199448 -118.359436 177 717ft 0kts
15-Nov-20 16:19 34.199448 -118.359436 177 717ft 0kts
15-Nov-20 16:21 34.199448 -118.359436 177 717ft 0kts
15-Nov-20 16:21 34.199448 -118.359436 177 717ft 0kts
15-Nov-20 16:23 34.199448 -118.359436 177 717ft 0kts
15-Nov-20 16:23 34.199448 -118.359436 177 717ft 0kts
15-Nov-20 16:25 34.199448 -118.359436 177 717ft 0kts
15-Nov-20 16:26 34.199448 -118.359436 177 717ft 0kts
15-Nov-20 16:26 34.199448 -118.359436 177 717ft 0kts
15-Nov-20 16:28 34.199448 -118.359436 177 717ft 0kts
15-Nov-20 16:28 34.199448 -118.359436 177 717ft 0kts
15-Nov-20 16:29 34.198949 -118.359799 247 716ft 11kts
15-Nov-20 16:30 34.199009 -118.364076 277 719ft 9kts
15-Nov-20 16:31 34.199119 -118.367112 270 725ft 8kts
15-Nov-20 16:32 34.198805 -118.368963 196 729ft 0kts
15-Nov-20 16:33 34.198805 -118.368963 196 729ft 0kts
15-Nov-20 16:34 34.198805 -118.368963 196 729ft 0kts
15-Nov-20 16:35 34.198805 -118.368963 196 729ft 0kts
15-Nov-20 16:36 34.198805 -118.368963 196 729ft 0kts
15-Nov-20 16:37 34.198805 -118.368963 196 729ft 0kts
15-Nov-20 16:38 34.198805 -118.368963 196 729ft 0kts
15-Nov-20 16:39 34.198805 -118.368963 196 729ft 0kts
15-Nov-20 16:40 34.198805 -118.368963 196 729ft 0kts
15-Nov-20 16:41 34.197879 -118.365628 92 724ft 67kts
15-Nov-20 16:42 34.181138 -118.353229 223 1780ft 114kts
15-Nov-20 16:43 34.155610 -118.383930 226 2791ft 137kts
15-Nov-20 16:44 34.145404 -118.421412 326 3809ft 134kts
15-Nov-20 16:45 34.181193 -118.430615 352 4808ft 129kts
15-Nov-20 16:46 34.215936 -118.437552 352 5787ft 124kts
15-Nov-20 16:47 34.248924 -118.443158 355 6766ft 116kts
15-Nov-20 16:48 34.281042 -118.447198 353 7666ft 115kts
15-Nov-20 16:49 34.313159 -118.451412 353 8420ft 117kts
15-Nov-20 16:50 34.345385 -118.455594 352 9083ft 114kts
15-Nov-20 16:51 34.376823 -118.457763 21 9768ft 120kts
15-Nov-20 16:52 34.402238 -118.429882 44 10395ft 126kts
15-Nov-20 16:53 34.423291 -118.396556 46 10955ft 125kts
15-Nov-20 16:54 34.445982 -118.360257 47 11106ft 142kts
15-Nov-20 16:55 34.470659 -118.320974 47 11117ft 149kts
15-Nov-20 16:56 34.496137 -118.280354 47 11121ft 152kts
15-Nov-20 16:57 34.521472 -118.239920 47 11128ft 150kts
15-Nov-20 16:58 34.547321 -118.198570 48 10988ft 153kts
15-Nov-20 16:59 34.572901 -118.157635 48 11011ft 154kts
15-Nov-20 17:00 34.598889 -118.115989 48 11011ft 156kts
15-Nov-20 17:01 34.625063 -118.073954 50 11006ft 156kts
15-Nov-20 17:02 34.636218 -118.021652 79 11008ft 162kts
15-Nov-20 17:03 34.642016 -117.967284 79 11009ft 162kts
15-Nov-20 17:04 34.647920 -117.913169 79 11009ft 162kts
15-Nov-20 17:05 34.653829 -117.858854 80 11011ft 162kts
15-Nov-20 17:06 34.659709 -117.804556 80 11011ft 162kts
15-Nov-20 17:07 34.667292 -117.750705 71 11012ft 161kts
15-Nov-20 17:08 34.680684 -117.699074 71 11014ft 161kts
15-Nov-20 17:09 34.694052 -117.647046 71 11014ft 161kts
15-Nov-20 17:10 34.707354 -117.595097 71 11017ft 161kts
15-Nov-20 17:11 34.720707 -117.542847 72 11015ft 161kts
15-Nov-20 17:12 34.733871 -117.491239 72 11015ft 161kts
15-Nov-20 17:13 34.747149 -117.439064 72 11018ft 161kts
15-Nov-20 17:14 34.760314 -117.386992 72 11017ft 161kts
15-Nov-20 17:15 34.773599 -117.334909 72 11018ft 161kts
15-Nov-20 17:16 34.786749 -117.282867 72 11018ft 161kts
15-Nov-20 17:17 34.799858 -117.230950 73 11018ft 161kts
15-Nov-20 17:18 34.812993 -117.178834 73 11019ft 161kts
15-Nov-20 17:19 34.826117 -117.126641 73 11019ft 161kts
15-Nov-20 17:20 34.839194 -117.074552 73 11018ft 161kts
15-Nov-20 17:21 34.852299 -117.022229 73 11017ft 161kts
15-Nov-20 17:22 34.865268 -116.970340 73 11016ft 160kts
15-Nov-20 17:23 34.878251 -116.918305 73 11019ft 160kts
15-Nov-20 17:24 34.891236 -116.866142 74 11033ft 160kts
15-Nov-20 17:25 34.904105 -116.814353 74 11035ft 160kts
15-Nov-20 17:26 34.916926 -116.762649 74 11035ft 160kts
15-Nov-20 17:27 34.929810 -116.710575 74 11035ft 160kts
15-Nov-20 17:28 34.942682 -116.658455 74 11034ft 160kts
15-Nov-20 17:29 34.955495 -116.606472 74 11034ft 160kts
15-Nov-20 17:30 34.972087 -116.556105 62 11034ft 160kts
15-Nov-20 17:31 34.993560 -116.508256 62 11034ft 160kts
15-Nov-20 17:32 35.014843 -116.460391 62 11032ft 160kts
15-Nov-20 17:33 35.036160 -116.412340 62 11031ft 160kts
15-Nov-20 17:34 35.057442 -116.364321 62 11034ft 161kts
15-Nov-20 17:35 35.078684 -116.316317 62 11027ft 160kts
15-Nov-20 17:36 35.099895 -116.268322 62 11030ft 160kts
15-Nov-20 17:37 35.121087 -116.220296 62 11032ft 161kts
15-Nov-20 17:38 35.142398 -116.171937 62 11030ft 161kts
15-Nov-20 17:39 35.163748 -116.123421 62 11033ft 162kts
15-Nov-20 17:40 35.185041 -116.074956 61 11028ft 162kts
15-Nov-20 17:41 35.206464 -116.026130 62 10996ft 163kts
15-Nov-20 17:42 35.227867 -115.977282 61 10993ft 163kts
15-Nov-20 17:43 35.249253 -115.928397 62 10994ft 162kts
15-Nov-20 17:44 35.270596 -115.879549 61 10996ft 163kts
15-Nov-20 17:45 35.291989 -115.830504 61 10998ft 163kts
15-Nov-20 17:46 35.314622 -115.782375 52 11000ft 163kts
15-Nov-20 17:47 35.345004 -115.741242 46 10994ft 162kts
15-Nov-20 17:48 35.375627 -115.700550 46 10997ft 162kts
15-Nov-20 17:49 35.406086 -115.659896 46 10997ft 157kts
15-Nov-20 17:50 35.434672 -115.621713 46 10999ft 149kts
15-Nov-20 17:51 35.462370 -115.584661 46 11011ft 147kts
15-Nov-20 17:52 35.490087 -115.547542 46 11003ft 147kts
15-Nov-20 17:53 35.517622 -115.510638 46 11001ft 146kts
15-Nov-20 17:54 35.545030 -115.473885 46 11005ft 145kts
15-Nov-20 17:55 35.572486 -115.437022 46 10879ft 151kts
15-Nov-20 17:56 35.601829 -115.397588 47 10373ft 163kts
15-Nov-20 17:57 35.633226 -115.355344 47 9682ft 169kts
15-Nov-20 17:58 35.665021 -115.312508 47 8975ft 169kts
15-Nov-20 17:59 35.696814 -115.269616 47 8269ft 169kts
15-Nov-20 18:00 35.726842 -115.229064 48 8025ft 151kts
15-Nov-20 18:02 35.754382 -115.191814 47 8016ft 145kts
15-Nov-20 18:03 35.781348 -115.155308 48 8020ft 144kts
15-Nov-20 18:04 35.808517 -115.118487 48 8020ft 146kts
15-Nov-20 18:05 35.835944 -115.081273 48 8020ft 147kts
15-Nov-20 18:06 35.863477 -115.043878 48 8024ft 147kts
15-Nov-20 18:07 35.891115 -115.006300 48 8021ft 148kts
15-Nov-20 18:08 35.918628 -114.968844 48 8020ft 147kts
15-Nov-20 18:09 35.946329 -114.931099 47 8023ft 148kts
15-Nov-20 18:10 35.987219 -114.916391 12 7679ft 162kts
15-Nov-20 18:11 36.031515 -114.904761 12 7124ft 165kts
15-Nov-20 18:12 36.076459 -114.892965 12 6413ft 162kts
15-Nov-20 18:13 36.120384 -114.881463 12 5712ft 161kts
15-Nov-20 18:14 36.161716 -114.870630 12 5530ft 144kts
15-Nov-20 18:15 36.200248 -114.860519 12 5528ft 140kts
15-Nov-20 18:16 36.238341 -114.850635 10 5531ft 140kts
15-Nov-20 18:17 36.276988 -114.843115 8 5534ft 140kts
15-Nov-20 18:18 36.315831 -114.837189 6 5532ft 140kts
15-Nov-20 18:19 36.325127 -114.868573 214 5534ft 142kts
15-Nov-20 18:20 36.291621 -114.894917 212 5534ft 143kts
15-Nov-20 18:20 36.263575 -114.916764 212 5532ft 143kts
15-Nov-20 18:22 36.224160 -114.947471 212 5531ft 143kts
15-Nov-20 18:22 36.195888 -114.969489 212 5534ft 144kts
15-Nov-20 18:24 36.156193 -115.000251 212 5526ft 143kts
15-Nov-20 18:24 36.128208 -115.021852 212 5528ft 143kts
15-Nov-20 18:25 36.094345 -115.048046 212 5528ft 143kts
15-Nov-20 18:26 36.060417 -115.074239 212 5527ft 143kts
15-Nov-20 18:27 36.026629 -115.100409 212 5526ft 143kts
15-Nov-20 18:28 35.992741 -115.126598 212 5525ft 143kts
15-Nov-20 18:29 35.962948 -115.114714 112 5523ft 140kts
15-Nov-20 18:30 35.982442 -115.084854 12 5529ft 138kts
15-Nov-20 18:31 36.020383 -115.074716 12 5528ft 140kts
15-Nov-20 18:32 36.058448 -115.064481 12 5527ft 140kts
15-Nov-20 18:33 36.096494 -115.054264 12 5528ft 139kts
15-Nov-20 18:34 36.133634 -115.054224 324 5523ft 134kts
15-Nov-20 18:35 36.154193 -115.088322 293 4448ft 122kts
15-Nov-20 18:36 36.152602 -115.123913 216 3754ft 124kts
15-Nov-20 18:37 36.124480 -115.141977 207 2759ft 105kts
15-Nov-20 18:38 36.102955 -115.154501 204 2251ft 82kts
15-Nov-20 18:39 36.089332 -115.162404 235 2141ft 21kts
15-Nov-20 18:40 36.089474 -115.163705 277 2142ft 0kts
15-Nov-20 18:41 36.089475 -115.163710 276 2142ft 0kts
15-Nov-20 18:42 36.089109 -115.166711 150 2141ft 0kts
15-Nov-20 18:43 36.089109 -115.166711 150 2141ft 0kts
15-Nov-20 18:44 36.089109 -115.166711 150 2141ft 0kts

Navigation Log

Ident Type
Flight plan parsing failed, navigation log unavailable